createdAt,value
2023-03-27T00:01:16.268Z,96028.22
2023-03-27T00:03:44.598Z,96038.53
2023-03-27T00:06:16.830Z,96056.84
2023-03-27T00:08:45.013Z,96070.16
2023-03-27T00:11:12.092Z,96068.16
2023-03-27T00:13:49.073Z,96085.97
2023-03-27T00:16:17.747Z,96084.69
2023-03-27T00:18:47.675Z,96093.94
2023-03-27T00:21:14.438Z,96096.94
2023-03-27T00:23:42.417Z,96109.72
2023-03-27T00:26:09.124Z,96110.34
2023-03-27T00:28:36.423Z,96144.63
2023-03-27T00:31:03.588Z,96158.75
2023-03-27T00:33:30.158Z,96164.16
2023-03-27T00:35:56.890Z,96212.97
2023-03-27T00:38:24.342Z,96224.78
2023-03-27T00:40:53.596Z,96224.94
2023-03-27T00:43:34.737Z,96233.81
2023-03-27T00:46:08.043Z,96220.25
2023-03-27T00:48:37.695Z,96240.00
2023-03-27T00:51:05.846Z,96242.09
2023-03-27T00:53:43.078Z,96238.03
2023-03-27T00:56:10.471Z,96263.91
2023-03-27T00:58:42.215Z,96293.34
2023-03-27T01:01:13.097Z,96307.41
2023-03-27T01:03:42.221Z,96302.84
2023-03-27T01:06:11.146Z,96331.94
2023-03-27T01:08:41.323Z,96365.31
2023-03-27T01:11:28.465Z,96380.50
2023-03-27T01:14:06.841Z,96390.13
2023-03-27T01:16:39.679Z,96398.66
2023-03-27T01:19:26.088Z,96430.69
2023-03-27T01:22:22.027Z,96450.97
2023-03-27T01:24:54.425Z,96467.94
2023-03-27T01:27:20.818Z,96504.88
2023-03-27T01:30:07.490Z,96523.50
2023-03-27T01:33:08.977Z,96517.16
2023-03-27T01:35:54.015Z,96526.47
2023-03-27T01:38:51.060Z,96539.84
2023-03-27T01:41:24.021Z,96548.00
2023-03-27T01:43:57.532Z,96571.72
2023-03-27T01:46:31.873Z,96593.44
2023-03-27T01:49:07.955Z,96605.59
2023-03-27T01:51:37.959Z,96598.00
2023-03-27T01:54:15.430Z,96596.69
2023-03-27T01:56:56.077Z,96620.03
2023-03-27T01:59:27.709Z,96639.09
2023-03-27T02:02:13.655Z,96639.72
2023-03-27T02:05:05.385Z,96659.72
2023-03-27T02:07:38.500Z,96673.75
2023-03-27T02:10:10.475Z,96683.00
2023-03-27T02:12:49.795Z,96704.41
2023-03-27T02:15:23.502Z,96697.16
2023-03-27T02:18:05.266Z,96703.53
2023-03-27T02:20:34.426Z,96717.69
2023-03-27T02:23:01.412Z,96722.03
2023-03-27T02:25:35.203Z,96763.41
2023-03-27T02:28:26.582Z,96772.94
2023-03-27T02:31:32.480Z,96783.47
2023-03-27T02:34:38.374Z,96781.56
2023-03-27T02:37:21.853Z,96812.06
2023-03-27T02:40:10.965Z,96858.31
2023-03-27T02:42:54.237Z,96861.63
2023-03-27T02:45:58.603Z,96873.94
2023-03-27T02:48:57.165Z,96891.75
2023-03-27T02:51:41.013Z,96880.28
2023-03-27T02:54:25.993Z,96900.44
2023-03-27T02:57:01.524Z,96915.28
2023-03-27T02:59:35.853Z,96941.84
2023-03-27T03:02:10.554Z,96949.09
2023-03-27T03:04:43.201Z,96985.16
2023-03-27T03:07:11.485Z,97002.47
2023-03-27T03:09:40.560Z,96978.53
2023-03-27T03:12:08.983Z,96995.22
2023-03-27T03:14:39.227Z,97069.78
2023-03-27T03:17:06.652Z,97084.47
2023-03-27T03:19:33.089Z,97104.03
2023-03-27T03:22:00.737Z,97142.81
2023-03-27T03:24:28.116Z,97153.84
2023-03-27T03:26:54.593Z,97173.06
2023-03-27T03:29:21.243Z,97206.06
2023-03-27T03:31:48.596Z,97207.16
2023-03-27T03:34:18.736Z,97225.06
2023-03-27T03:36:49.830Z,97230.81
2023-03-27T03:39:17.530Z,97262.59
2023-03-27T03:41:46.359Z,97270.00
2023-03-27T03:44:12.958Z,97285.28
2023-03-27T03:46:40.631Z,97326.50
2023-03-27T03:49:07.605Z,97364.41
2023-03-27T03:51:35.770Z,97432.09
2023-03-27T03:54:06.128Z,97473.72
2023-03-27T03:56:34.491Z,97499.06
2023-03-27T03:59:01.592Z,97521.97
2023-03-27T04:01:28.404Z,97535.72
2023-03-27T04:03:54.903Z,97561.59
2023-03-27T04:06:21.554Z,97598.06
2023-03-27T04:08:48.526Z,97593.44
2023-03-27T04:11:15.154Z,97632.84
2023-03-27T04:13:42.335Z,97641.16
2023-03-27T04:16:09.100Z,97676.09
2023-03-27T04:18:38.208Z,97718.63
2023-03-27T04:21:05.302Z,97728.59
2023-03-27T04:23:31.762Z,97756.41
2023-03-27T04:26:03.391Z,97781.34
2023-03-27T04:28:34.289Z,97806.94
2023-03-27T04:31:06.557Z,97864.59
2023-03-27T04:33:39.507Z,97867.22
2023-03-27T04:36:08.137Z,97908.25
2023-03-27T04:38:36.969Z,97913.53
2023-03-27T04:41:04.252Z,97928.59
2023-03-27T04:43:31.033Z,97918.91
2023-03-27T04:45:57.533Z,97941.88
2023-03-27T04:48:23.991Z,97969.38
2023-03-27T04:50:50.466Z,97975.84
2023-03-27T04:53:18.298Z,97987.94
2023-03-27T04:55:45.810Z,97970.63
2023-03-27T04:58:12.967Z,97981.06
2023-03-27T05:00:42.491Z,98020.34
2023-03-27T05:03:10.538Z,98021.63
2023-03-27T05:05:37.068Z,98044.88
2023-03-27T05:08:03.654Z,98054.78
2023-03-27T05:10:30.125Z,98059.25
2023-03-27T05:12:59.464Z,98079.31
2023-03-27T05:15:30.303Z,98101.97
2023-03-27T05:17:57.152Z,98092.59
2023-03-27T05:20:24.938Z,98103.19
2023-03-27T05:22:54.197Z,98119.88
2023-03-27T05:25:21.401Z,98138.66
2023-03-27T05:27:49.257Z,98172.88
2023-03-27T05:30:19.615Z,98193.94
2023-03-27T05:32:51.898Z,98167.72
2023-03-27T05:35:20.846Z,98194.25
2023-03-27T05:37:49.135Z,98193.91
2023-03-27T05:40:17.319Z,98197.88
2023-03-27T05:42:50.212Z,98233.22
2023-03-27T05:45:17.911Z,98246.91
2023-03-27T05:47:49.761Z,98261.50
2023-03-27T05:50:18.051Z,98272.78
2023-03-27T05:52:45.501Z,98272.38
2023-03-27T05:55:13.010Z,98273.00
2023-03-27T05:57:41.184Z,98287.81
2023-03-27T06:00:16.683Z,98314.72
2023-03-27T06:02:45.059Z,98301.19
2023-03-27T06:05:16.046Z,98293.66
2023-03-27T06:07:43.738Z,98319.44
2023-03-27T06:10:14.317Z,98322.25
2023-03-27T06:12:41.923Z,98354.09
2023-03-27T06:15:09.976Z,98327.78
2023-03-27T06:17:39.225Z,98387.69
2023-03-27T06:20:12.871Z,98370.91
2023-03-27T06:22:45.683Z,98407.44
2023-03-27T06:25:12.805Z,98445.56
2023-03-27T06:27:42.357Z,98422.59
2023-03-27T06:30:11.215Z,98460.81
2023-03-27T06:32:43.634Z,98452.16
2023-03-27T06:35:10.264Z,98457.06
2023-03-27T06:37:36.907Z,98428.75
2023-03-27T06:40:09.429Z,98492.28
2023-03-27T06:42:38.430Z,98493.75
2023-03-27T06:45:05.811Z,98492.69
2023-03-27T06:47:36.357Z,98492.06
2023-03-27T06:50:07.499Z,98509.31
2023-03-27T06:52:33.919Z,98549.34
2023-03-27T06:55:00.531Z,98502.25
2023-03-27T06:57:27.122Z,98566.78
2023-03-27T06:59:53.584Z,98628.22
2023-03-27T07:02:20.081Z,98650.66
2023-03-27T07:04:57.806Z,98684.22
2023-03-27T07:07:30.888Z,98687.28
2023-03-27T07:09:57.331Z,98689.06
2023-03-27T07:12:23.795Z,98688.56
2023-03-27T07:14:50.332Z,98715.44
2023-03-27T07:17:17.117Z,98732.66
2023-03-27T07:19:43.589Z,98756.56
2023-03-27T07:22:10.472Z,98744.13
2023-03-27T07:24:41.554Z,98767.75
2023-03-27T07:27:08.308Z,98773.31
2023-03-27T07:29:36.190Z,98778.84
2023-03-27T07:32:07.140Z,98788.03
2023-03-27T07:34:35.832Z,98802.75
2023-03-27T07:37:02.377Z,98815.47
2023-03-27T07:39:28.834Z,98830.00
2023-03-27T07:41:55.599Z,98806.69
2023-03-27T07:44:22.471Z,98816.22
2023-03-27T07:46:52.254Z,98842.84
2023-03-27T07:49:19.206Z,98839.22
2023-03-27T07:52:06.655Z,98825.03
2023-03-27T07:54:33.124Z,98836.19
2023-03-27T07:56:59.628Z,98857.94
2023-03-27T07:59:28.277Z,98860.22
2023-03-27T08:01:55.588Z,98856.31
2023-03-27T08:04:22.312Z,98863.00
2023-03-27T08:06:51.928Z,98865.47
2023-03-27T08:09:18.431Z,98883.66
2023-03-27T08:11:45.431Z,98867.31
2023-03-27T08:14:11.907Z,98890.19
2023-03-27T08:16:38.676Z,98885.06
2023-03-27T08:19:06.265Z,98892.94
2023-03-27T08:21:34.208Z,98901.56
2023-03-27T08:24:03.450Z,98901.06
2023-03-27T08:26:30.457Z,98894.78
2023-03-27T08:28:57.015Z,98900.63
2023-03-27T08:31:24.181Z,98901.94
2023-03-27T08:34:02.659Z,98920.16
2023-03-27T08:36:29.912Z,98920.69
2023-03-27T08:38:57.023Z,98918.19
2023-03-27T08:41:28.242Z,98921.75
2023-03-27T08:43:57.219Z,98916.00
2023-03-27T08:46:29.025Z,98899.19
2023-03-27T08:49:17.331Z,98915.28
2023-03-27T08:51:49.167Z,98918.28
2023-03-27T08:54:25.533Z,98923.06
2023-03-27T08:56:52.705Z,98930.09
2023-03-27T08:59:22.317Z,98923.63
2023-03-27T09:02:02.321Z,98934.28
2023-03-27T09:04:50.908Z,98942.81
2023-03-27T09:07:39.245Z,98958.03
2023-03-27T09:10:18.089Z,98940.91
2023-03-27T09:13:04.326Z,98951.72
2023-03-27T09:15:37.463Z,98948.66
2023-03-27T09:18:18.292Z,98937.47
2023-03-27T09:20:49.703Z,98941.44
2023-03-27T09:23:34.075Z,98935.69
2023-03-27T09:26:06.878Z,98942.28
2023-03-27T09:29:00.465Z,98943.09
2023-03-27T09:31:33.148Z,98941.38
2023-03-27T09:34:15.587Z,98938.09
2023-03-27T09:36:44.591Z,98908.28
2023-03-27T09:39:21.816Z,98891.78
2023-03-27T09:41:54.134Z,98873.97
2023-03-27T09:44:36.348Z,98864.81
2023-03-27T09:47:16.522Z,98836.03
2023-03-27T09:49:49.098Z,98885.06
2023-03-27T09:52:37.744Z,98912.78
2023-03-27T09:55:23.532Z,98968.88
2023-03-27T09:57:52.740Z,98974.16
2023-03-27T10:00:27.769Z,99006.03
2023-03-27T10:03:08.445Z,99021.38
2023-03-27T10:05:35.617Z,99012.44
2023-03-27T10:08:29.109Z,99016.63
2023-03-27T10:10:58.797Z,99035.84
2023-03-27T10:13:29.211Z,99007.91
2023-03-27T10:16:01.366Z,99003.69
2023-03-27T10:18:30.412Z,98994.97
2023-03-27T10:21:01.006Z,99010.06
2023-03-27T10:23:39.251Z,99002.78
2023-03-27T10:26:08.440Z,99003.03
2023-03-27T10:28:40.170Z,99003.47
2023-03-27T10:31:24.898Z,99025.72
2023-03-27T10:33:51.668Z,99035.97
2023-03-27T10:36:18.810Z,99035.66
2023-03-27T10:38:56.485Z,99032.91
2023-03-27T10:41:28.265Z,99036.06
2023-03-27T10:43:57.423Z,99062.72
2023-03-27T10:46:28.104Z,99059.00
2023-03-27T10:49:19.061Z,99053.19
2023-03-27T10:52:04.166Z,99071.75
2023-03-27T10:55:11.595Z,99074.53
2023-03-27T10:57:39.520Z,99076.69
2023-03-27T11:00:48.734Z,99080.31
2023-03-27T11:03:22.814Z,99096.09
2023-03-27T11:05:53.794Z,99090.41
2023-03-27T11:08:28.121Z,99084.91
2023-03-27T11:11:02.996Z,99078.50
2023-03-27T11:13:38.203Z,99066.81
2023-03-27T11:16:33.835Z,99096.94
2023-03-27T11:19:09.464Z,99101.56
2023-03-27T11:21:42.179Z,99093.50
2023-03-27T11:24:27.184Z,99089.59
2023-03-27T11:27:14.578Z,99095.84
2023-03-27T11:30:10.148Z,99107.28
2023-03-27T11:32:52.892Z,99120.72
2023-03-27T11:35:24.771Z,99108.47
2023-03-27T11:37:59.663Z,99115.75
2023-03-27T11:40:37.670Z,99109.31
2023-03-27T11:43:04.619Z,99114.84
2023-03-27T11:45:42.015Z,99106.19
2023-03-27T11:48:28.466Z,99087.53
2023-03-27T11:51:05.281Z,99112.75
2023-03-27T11:53:42.084Z,99104.25
2023-03-27T11:56:30.596Z,99096.47
2023-03-27T11:59:12.615Z,99101.72
2023-03-27T12:01:52.536Z,99107.19
2023-03-27T12:04:40.576Z,99110.31
2023-03-27T12:07:47.713Z,99120.63
2023-03-27T12:10:33.999Z,99133.59
2023-03-27T12:13:00.811Z,99156.03
2023-03-27T12:15:55.166Z,99161.81
2023-03-27T12:18:32.318Z,99154.72
2023-03-27T12:21:17.667Z,99106.09
2023-03-27T12:23:46.931Z,99095.16
2023-03-27T12:26:28.558Z,99055.28
2023-03-27T12:29:00.925Z,99027.91
2023-03-27T12:31:47.647Z,99043.78
2023-03-27T12:34:37.515Z,99017.75
2023-03-27T12:37:05.907Z,99036.31
2023-03-27T12:39:45.873Z,99064.63
2023-03-27T12:42:14.072Z,99088.72
2023-03-27T12:45:05.431Z,99095.88
2023-03-27T12:47:32.063Z,99122.09
2023-03-27T12:50:00.676Z,99111.84
2023-03-27T12:52:28.614Z,99118.16
2023-03-27T12:55:09.384Z,99126.38
2023-03-27T12:57:46.693Z,99133.59
2023-03-27T13:00:28.037Z,99128.00
2023-03-27T13:03:25.253Z,99117.31
2023-03-27T13:06:30.328Z,99137.09
2023-03-27T13:09:13.270Z,99124.00
2023-03-27T13:12:04.674Z,99122.25
2023-03-27T13:14:37.060Z,99112.78
2023-03-27T13:17:41.160Z,99120.31
2023-03-27T13:20:30.501Z,99112.88
2023-03-27T13:23:21.387Z,99115.22
2023-03-27T13:25:54.561Z,99119.81
2023-03-27T13:28:26.394Z,99129.09
2023-03-27T13:30:56.536Z,99128.09
2023-03-27T13:33:24.103Z,99109.66
2023-03-27T13:36:14.362Z,99117.31
2023-03-27T13:38:56.674Z,99110.94
2023-03-27T13:41:44.245Z,99124.06
2023-03-27T13:44:28.900Z,99139.31
2023-03-27T13:47:28.443Z,99124.03
2023-03-27T13:50:07.007Z,99119.81
2023-03-27T13:53:02.877Z,99121.63
2023-03-27T13:55:58.351Z,99123.44
2023-03-27T13:58:44.971Z,99106.53
2023-03-27T14:01:34.303Z,99125.91
2023-03-27T14:04:00.849Z,99131.81
2023-03-27T14:06:46.064Z,99115.16
2023-03-27T14:09:33.249Z,99119.00
2023-03-27T14:12:24.438Z,99125.91
2023-03-27T14:15:09.283Z,99105.84
2023-03-27T14:17:49.008Z,99135.94
2023-03-27T14:20:32.517Z,99136.22
2023-03-27T14:23:06.219Z,99146.25
2023-03-27T14:25:38.386Z,99146.25
2023-03-27T14:28:10.313Z,99153.06
2023-03-27T14:30:48.220Z,99163.91
2023-03-27T14:33:20.317Z,99178.72
2023-03-27T14:35:57.368Z,99192.72
2023-03-27T14:38:30.329Z,99197.13
2023-03-27T14:41:02.628Z,99155.78
2023-03-27T14:43:30.523Z,99102.38
2023-03-27T14:46:04.263Z,99018.88
2023-03-27T14:48:37.075Z,98955.44
2023-03-27T14:51:21.599Z,98935.31
2023-03-27T14:53:51.204Z,98924.84
2023-03-27T14:56:28.238Z,98945.44
2023-03-27T14:59:05.594Z,98951.50
2023-03-27T15:01:35.280Z,98963.56
2023-03-27T15:04:03.131Z,98988.09
2023-03-27T15:06:36.295Z,98974.16
2023-03-27T15:09:08.926Z,98990.38
2023-03-27T15:11:38.457Z,98996.19
2023-03-27T15:14:18.507Z,99005.91
2023-03-27T15:16:52.848Z,99014.56
2023-03-27T15:19:26.242Z,99025.00
2023-03-27T15:22:01.593Z,99028.69
2023-03-27T15:24:43.197Z,99034.84
2023-03-27T15:27:22.291Z,99055.94
2023-03-27T15:30:00.463Z,99048.19
2023-03-27T15:32:42.439Z,99044.28
2023-03-27T15:35:15.733Z,99053.19
2023-03-27T15:37:44.687Z,99073.63
2023-03-27T15:40:13.503Z,99056.50
2023-03-27T15:42:52.551Z,99070.19
2023-03-27T15:45:22.422Z,99085.53
2023-03-27T15:48:00.939Z,99079.72
2023-03-27T15:50:28.262Z,99110.63
2023-03-27T15:52:58.106Z,99153.25
2023-03-27T15:55:34.989Z,99058.50
2023-03-27T15:58:14.345Z,98896.72
2023-03-27T16:00:48.777Z,98830.63
2023-03-27T16:03:21.155Z,98770.69
2023-03-27T16:05:50.378Z,98675.56
2023-03-27T16:08:46.274Z,98633.94
2023-03-27T16:11:17.642Z,98553.63
2023-03-27T16:13:58.977Z,98510.22
2023-03-27T16:16:27.568Z,98518.03
2023-03-27T16:18:54.473Z,98499.28
2023-03-27T16:21:26.410Z,98503.06
2023-03-27T16:23:53.345Z,98495.94
2023-03-27T16:26:27.578Z,98502.84
2023-03-27T16:29:00.742Z,98520.47
2023-03-27T16:31:27.699Z,98504.03
2023-03-27T16:33:54.127Z,98526.16
2023-03-27T16:36:32.603Z,98556.38
2023-03-27T16:38:59.082Z,98575.97
2023-03-27T16:41:26.055Z,98624.13
2023-03-27T16:43:52.589Z,98662.91
2023-03-27T16:46:24.698Z,98662.75
2023-03-27T16:48:52.593Z,98682.19
2023-03-27T16:51:20.917Z,98701.44
2023-03-27T16:53:48.341Z,98748.06
2023-03-27T16:56:14.837Z,98756.31
2023-03-27T16:58:42.951Z,98812.91
2023-03-27T17:01:09.977Z,98813.75
2023-03-27T17:03:39.315Z,98816.69
2023-03-27T17:06:09.524Z,98854.63
2023-03-27T17:08:36.659Z,98857.66
2023-03-27T17:11:05.682Z,98897.47
2023-03-27T17:13:32.519Z,98933.91
2023-03-27T17:15:59.350Z,98940.38
2023-03-27T17:18:26.552Z,98962.00
2023-03-27T17:20:54.280Z,98992.38
2023-03-27T17:23:21.048Z,99015.59
2023-03-27T17:25:48.551Z,99017.50
2023-03-27T17:28:15.477Z,99028.69
2023-03-27T17:30:56.385Z,99062.63
2023-03-27T17:33:28.527Z,99078.28
2023-03-27T17:35:57.613Z,99083.16
2023-03-27T17:38:24.681Z,99088.94
2023-03-27T17:40:51.581Z,99107.06
2023-03-27T17:43:18.362Z,99094.66
2023-03-27T17:45:44.938Z,99085.81
2023-03-27T17:48:11.533Z,99105.53
2023-03-27T17:50:39.937Z,99125.97
2023-03-27T17:53:06.971Z,99099.34
2023-03-27T17:55:36.357Z,99110.47
2023-03-27T17:58:09.349Z,99128.38
2023-03-27T18:00:38.514Z,99107.84
2023-03-27T18:03:06.662Z,99113.84
2023-03-27T18:05:39.642Z,99140.69
2023-03-27T18:08:06.960Z,99139.09
2023-03-27T18:10:35.345Z,99134.44
2023-03-27T18:13:02.621Z,99146.13
2023-03-27T18:15:29.989Z,99160.13
2023-03-27T18:17:56.468Z,99146.31
2023-03-27T18:20:22.992Z,99156.84
2023-03-27T18:22:49.617Z,99146.31
2023-03-27T18:25:16.122Z,99142.94
2023-03-27T18:27:44.413Z,99149.09
2023-03-27T18:30:13.767Z,99152.78
2023-03-27T18:32:42.708Z,99165.56
2023-03-27T18:35:14.616Z,99162.00
2023-03-27T18:37:42.506Z,99192.41
2023-03-27T18:40:11.277Z,99199.03
2023-03-27T18:42:39.534Z,99188.22
2023-03-27T18:45:07.961Z,99183.47
2023-03-27T18:47:38.601Z,99182.06
2023-03-27T18:50:06.305Z,99187.00
2023-03-27T18:52:32.956Z,99181.78
2023-03-27T18:55:00.289Z,99177.44
2023-03-27T18:57:27.626Z,99189.94
2023-03-27T18:59:55.284Z,99184.84
2023-03-27T19:02:22.377Z,99160.97
2023-03-27T19:04:48.879Z,99170.84
2023-03-27T19:07:16.728Z,99190.59
2023-03-27T19:09:43.358Z,99189.56
2023-03-27T19:12:12.642Z,99187.41
2023-03-27T19:14:44.503Z,99189.78
2023-03-27T19:17:14.670Z,99178.22
2023-03-27T19:19:45.162Z,99171.66
2023-03-27T19:22:13.240Z,99163.25
2023-03-27T19:24:40.848Z,99152.22
2023-03-27T19:27:07.839Z,99130.38
2023-03-27T19:29:56.277Z,99135.25
2023-03-27T19:32:24.924Z,99129.63
2023-03-27T19:34:51.563Z,99106.47
2023-03-27T19:37:18.109Z,99104.97
2023-03-27T19:39:44.540Z,99087.50
2023-03-27T19:42:11.066Z,99086.59
2023-03-27T19:44:38.233Z,99072.94
2023-03-27T19:47:05.400Z,99061.13
2023-03-27T19:49:31.916Z,99047.03
2023-03-27T19:51:58.730Z,99049.19
2023-03-27T19:54:25.259Z,99021.66
2023-03-27T19:56:54.267Z,99020.72
2023-03-27T19:59:30.516Z,98993.09
2023-03-27T20:01:57.568Z,98978.63
2023-03-27T20:04:24.075Z,98974.44
2023-03-27T20:06:50.530Z,98969.56
2023-03-27T20:09:19.167Z,98956.13
2023-03-27T20:11:46.692Z,98944.84
2023-03-27T20:14:13.837Z,98931.72
2023-03-27T20:16:40.535Z,98949.41
2023-03-27T20:19:07.829Z,98933.25
2023-03-27T20:21:40.385Z,98935.97
2023-03-27T20:24:10.138Z,98923.31
2023-03-27T20:26:41.476Z,98937.28
2023-03-27T20:29:13.805Z,98949.41
2023-03-27T20:31:40.900Z,98944.31
2023-03-27T20:34:08.556Z,98958.53
2023-03-27T20:36:39.191Z,98953.31
2023-03-27T20:39:07.636Z,98957.00
2023-03-27T20:41:39.082Z,98950.69
2023-03-27T20:44:16.405Z,98964.56
2023-03-27T20:46:51.133Z,98982.09
2023-03-27T20:49:39.723Z,98984.63
2023-03-27T20:52:08.150Z,98985.13
2023-03-27T20:54:34.743Z,98989.00
2023-03-27T20:57:04.592Z,98997.75
2023-03-27T20:59:31.438Z,99003.41
2023-03-27T21:01:59.757Z,99015.09
2023-03-27T21:04:28.280Z,99024.53
2023-03-27T21:06:56.164Z,98998.13
2023-03-27T21:09:23.508Z,99035.47
2023-03-27T21:11:50.428Z,99049.53
2023-03-27T21:14:17.381Z,99049.25
2023-03-27T21:16:44.028Z,99052.47
2023-03-27T21:19:12.005Z,99065.91
2023-03-27T21:21:38.988Z,99064.41
2023-03-27T21:24:06.626Z,99083.25
2023-03-27T21:26:33.877Z,99082.41
2023-03-27T21:29:01.391Z,99083.00
2023-03-27T21:31:28.139Z,99074.69
2023-03-27T21:33:54.704Z,99081.91
2023-03-27T21:36:21.572Z,99087.63
2023-03-27T21:38:48.145Z,99100.34
2023-03-27T21:41:16.400Z,99105.47
2023-03-27T21:43:42.902Z,99088.66
2023-03-27T21:46:09.507Z,99097.06
2023-03-27T21:48:36.793Z,99099.69
2023-03-27T21:51:13.962Z,99093.69
2023-03-27T21:53:41.538Z,99087.47
2023-03-27T21:56:08.396Z,99068.03
2023-03-27T21:58:34.840Z,99079.91
2023-03-27T22:01:01.340Z,99072.91
2023-03-27T22:03:28.922Z,99068.84
2023-03-27T22:06:10.241Z,99072.91
2023-03-27T22:08:41.296Z,99073.81
2023-03-27T22:11:09.138Z,99067.28
2023-03-27T22:13:37.112Z,99058.69
2023-03-27T22:16:11.982Z,99054.38
2023-03-27T22:18:39.705Z,99059.72
2023-03-27T22:21:25.548Z,99048.75
2023-03-27T22:23:54.025Z,99050.75
2023-03-27T22:26:26.880Z,99039.16
2023-03-27T22:28:53.650Z,99058.31
2023-03-27T22:31:21.496Z,99044.69
2023-03-27T22:33:49.002Z,99053.09
2023-03-27T22:36:17.695Z,99058.69
2023-03-27T22:38:44.280Z,99035.13
2023-03-27T22:41:12.991Z,99057.53
2023-03-27T22:43:39.888Z,99059.66
2023-03-27T22:46:08.222Z,99051.34
2023-03-27T22:48:35.497Z,99061.88
2023-03-27T22:51:03.636Z,99072.47
2023-03-27T22:53:31.854Z,99073.66
2023-03-27T22:55:59.592Z,99083.41
2023-03-27T22:58:26.588Z,99080.34
2023-03-27T23:00:54.348Z,99084.94
2023-03-27T23:03:23.410Z,99081.53
2023-03-27T23:05:51.284Z,99084.50
2023-03-27T23:08:20.375Z,99085.41
2023-03-27T23:10:54.655Z,99096.38
2023-03-27T23:13:21.418Z,99100.25
2023-03-27T23:15:51.016Z,99113.91
2023-03-27T23:18:25.717Z,99102.28
2023-03-27T23:21:01.160Z,99094.69
2023-03-27T23:23:29.374Z,99115.91
2023-03-27T23:25:57.755Z,99102.81
2023-03-27T23:28:25.224Z,99113.25
2023-03-27T23:30:54.693Z,99136.47
2023-03-27T23:33:32.262Z,99157.88
2023-03-27T23:36:07.543Z,99170.66
2023-03-27T23:38:34.928Z,99152.03
2023-03-27T23:41:02.488Z,99175.72
2023-03-27T23:43:30.540Z,99189.53
2023-03-27T23:45:59.562Z,99193.63
2023-03-27T23:48:29.719Z,99203.50
2023-03-27T23:50:57.210Z,99179.69
2023-03-27T23:53:25.784Z,99191.97
2023-03-27T23:55:52.826Z,99211.75
2023-03-27T23:58:19.788Z,99204.16
